< < Back
Terminal Aerodrome Forecast


Current Version              Previous Versions:   1  2  3  4  5  6  7  8  9  

Terminal Aerodrome Forecast

936
FTUS42 KFFC 300532
TAFCSG
TAF
KCSG 300532Z 3006/3106 18006KT P6SM SKC
     FM301000 21007KT P6SM SCT012 BKN040
     FM301400 23009KT 6SM -SHRA SCT008 OVC012
     FM301800 28009KT P6SM SCT008 BKN012 OVC035
     FM302000 29009KT P6SM SCT035
     FM310000 30005KT P6SM SKC
     FM310400 34003KT P6SM SKC=



Latest METAR

665
SAUS70 KWBC 300900
MTRCSG
METAR KCSG 300851Z AUTO 21003KT 10SM FEW026 BKN036 OVC042 11/06 A3018
RMK AO2 SLP217 T01110061 56020


USA.gov is the U.S. government's official web portal to all federal, state and local government web resources and services.